createdAt,value
2018-05-18T00:01:12.861Z,20.73
2018-05-18T00:03:41.201Z,24.47
2018-05-18T00:06:09.435Z,28.40
2018-05-18T00:08:36.932Z,24.20
2018-05-18T00:11:06.446Z,23.67
2018-05-18T00:26:39.338Z,25.43
2018-05-18T00:29:06.785Z,23.77
2018-05-18T00:31:34.295Z,26.83
2018-05-18T00:34:02.111Z,28.33
2018-05-18T00:36:29.614Z,25.07
2018-05-18T00:38:57.073Z,21.13
2018-05-18T00:41:25.369Z,25.87
2018-05-18T00:43:52.923Z,30.80
2018-05-18T00:46:22.093Z,31.03
2018-05-18T00:48:49.577Z,31.27
2018-05-18T01:01:02.836Z,49.20
2018-05-18T01:03:30.762Z,48.13
2018-05-18T01:05:58.234Z,46.73
2018-05-18T01:08:26.070Z,52.63
2018-05-18T01:10:53.941Z,56.33
2018-05-18T01:13:21.396Z,51.17
2018-05-18T01:15:48.958Z,51.60
2018-05-18T01:18:16.361Z,42.50
2018-05-18T01:20:44.618Z,35.17
2018-05-18T01:23:12.078Z,38.80
2018-05-18T01:25:39.553Z,40.30
2018-05-18T01:28:07.797Z,42.57
2018-05-18T01:30:36.562Z,40.47
2018-05-18T01:33:04.043Z,40.97
2018-05-18T01:35:31.501Z,39.63
2018-05-18T01:37:59.713Z,50.17
2018-05-18T01:40:27.177Z,43.53
2018-05-18T01:42:54.665Z,34.43
2018-05-18T01:45:22.853Z,59.80
2018-05-18T01:47:50.968Z,63.47
2018-05-18T01:50:19.196Z,60.23
2018-05-18T01:52:46.661Z,64.27
2018-05-18T01:55:14.157Z,76.60
2018-05-18T01:57:41.993Z,76.30
2018-05-18T02:00:09.722Z,70.30
2018-05-18T02:02:37.227Z,77.27
2018-05-18T02:05:05.849Z,75.40
2018-05-18T02:07:33.329Z,75.73
2018-05-18T02:10:00.814Z,79.37
2018-05-18T02:12:29.217Z,81.57
2018-05-18T02:14:56.697Z,80.97
2018-05-18T02:17:24.561Z,88.97
2018-05-18T02:19:52.059Z,85.87
2018-05-18T02:22:20.016Z,89.80
2018-05-18T02:24:47.953Z,85.13
2018-05-18T02:27:15.446Z,94.53
2018-05-18T02:29:43.109Z,85.50
2018-05-18T02:32:13.311Z,91.10
2018-05-18T02:34:41.427Z,89.23
2018-05-18T02:37:09.673Z,89.27
2018-05-18T02:39:37.241Z,95.17
2018-05-18T02:42:04.793Z,87.50
2018-05-18T02:44:32.269Z,91.50
2018-05-18T02:47:00.521Z,88.63
2018-05-18T02:49:27.992Z,88.20
2018-05-18T02:51:56.257Z,87.57
2018-05-18T02:54:28.716Z,96.27
2018-05-18T02:56:56.837Z,83.60
2018-05-18T02:59:24.307Z,88.50
2018-05-18T03:01:52.113Z,83.90
2018-05-18T03:04:19.590Z,75.17
2018-05-18T03:06:47.853Z,77.23
2018-05-18T03:09:16.081Z,77.87
2018-05-18T03:11:43.572Z,73.33
2018-05-18T03:14:11.101Z,76.30
2018-05-18T03:16:38.621Z,71.03
2018-05-18T03:19:07.108Z,75.03
2018-05-18T03:21:34.577Z,67.13
2018-05-18T03:24:02.125Z,73.53
2018-05-18T03:26:29.715Z,77.20
2018-05-18T03:28:57.465Z,71.57
2018-05-18T03:31:24.977Z,72.63
2018-05-18T03:33:53.290Z,76.23
2018-05-18T03:36:20.785Z,64.87
2018-05-18T03:38:48.270Z,58.87
2018-05-18T03:41:16.525Z,55.20
2018-05-18T03:43:44.017Z,53.90
2018-05-18T03:46:11.492Z,50.47
2018-05-18T03:48:39.720Z,54.57
2018-05-18T03:51:07.962Z,47.50
2018-05-18T03:53:36.253Z,42.47
2018-05-18T03:56:03.715Z,52.17
2018-05-18T03:58:31.273Z,47.13
2018-05-18T04:00:59.510Z,62.43
2018-05-18T04:03:39.005Z,62.53
2018-05-18T04:06:28.606Z,59.50
2018-05-18T04:08:57.020Z,62.03
2018-05-18T04:11:24.580Z,70.70
2018-05-18T04:13:52.069Z,72.23
2018-05-18T04:16:20.301Z,89.07
2018-05-18T04:18:47.777Z,80.87
2018-05-18T04:21:15.258Z,80.57
2018-05-18T04:23:43.873Z,85.60
2018-05-18T04:26:11.566Z,80.20
2018-05-18T04:28:39.839Z,81.23
2018-05-18T04:31:07.325Z,79.53
2018-05-18T04:33:35.567Z,82.77
2018-05-18T04:36:03.038Z,85.93
2018-05-18T04:38:30.504Z,89.07
2018-05-18T04:40:58.827Z,95.20
2018-05-18T04:43:26.337Z,80.60
2018-05-18T04:45:53.807Z,86.13
2018-05-18T04:48:22.039Z,81.37
2018-05-18T04:50:49.881Z,80.43
2018-05-18T04:53:18.276Z,88.73
2018-05-18T04:55:45.736Z,77.03
2018-05-18T04:58:13.575Z,74.33
2018-05-18T05:00:41.180Z,73.07
2018-05-18T05:03:08.754Z,65.57
2018-05-18T05:05:36.237Z,51.07
2018-05-18T05:08:03.913Z,54.40
2018-05-18T05:10:31.406Z,50.00
2018-05-18T05:12:59.000Z,45.80
2018-05-18T05:15:27.240Z,35.43
2018-05-18T05:17:54.729Z,36.90
2018-05-18T05:20:22.958Z,46.93
2018-05-18T05:22:50.454Z,46.13
2018-05-18T05:25:18.693Z,48.77
2018-05-18T05:27:46.269Z,47.07
2018-05-18T05:30:14.113Z,57.70
2018-05-18T05:32:41.591Z,57.40
2018-05-18T05:35:09.043Z,55.83
2018-05-18T05:37:36.692Z,58.67
2018-05-18T05:40:04.522Z,55.33
2018-05-18T05:42:33.580Z,54.93
2018-05-18T05:45:01.817Z,59.73
2018-05-18T05:47:29.316Z,59.57
2018-05-18T05:49:57.553Z,56.80
2018-05-18T05:52:25.080Z,63.10
2018-05-18T05:54:52.543Z,56.37
2018-05-18T05:57:20.042Z,53.57
2018-05-18T05:59:47.516Z,51.67
2018-05-18T06:02:15.761Z,46.80
2018-05-18T06:04:43.273Z,41.17
2018-05-18T06:07:10.736Z,43.17
2018-05-18T06:09:38.241Z,37.37
2018-05-18T06:12:06.058Z,38.57
2018-05-18T06:14:33.539Z,37.80
2018-05-18T06:17:01.021Z,44.50
2018-05-18T06:19:29.279Z,35.23
2018-05-18T06:21:57.109Z,43.57
2018-05-18T06:24:25.325Z,38.87
2018-05-18T06:26:53.556Z,39.60
2018-05-18T06:29:21.043Z,39.87
2018-05-18T06:31:48.509Z,31.00
2018-05-18T06:34:15.989Z,32.27
2018-05-18T06:36:44.219Z,27.30
2018-05-18T06:39:11.922Z,25.77
2018-05-18T06:41:40.157Z,23.70
2018-05-18T06:44:07.616Z,19.87
2018-05-18T06:46:35.102Z,23.37
2018-05-18T06:49:03.337Z,19.93
2018-05-18T06:51:31.201Z,19.90
2018-05-18T06:53:58.669Z,22.60
2018-05-18T06:56:27.005Z,22.23
2018-05-18T06:58:54.469Z,32.43
2018-05-18T07:01:22.396Z,28.07
2018-05-18T07:03:50.921Z,29.23
2018-05-18T07:06:18.458Z,29.57
2018-05-18T07:08:46.805Z,27.77
2018-05-18T07:11:14.276Z,27.10
2018-05-18T07:13:41.747Z,25.70
2018-05-18T07:16:09.235Z,26.97
2018-05-18T07:18:36.706Z,25.13
2018-05-18T07:21:04.270Z,27.90
2018-05-18T07:23:31.759Z,27.03
2018-05-18T07:25:59.184Z,24.57
2018-05-18T07:28:26.683Z,28.27
2018-05-18T07:30:54.260Z,26.53
2018-05-18T07:33:21.748Z,25.20
2018-05-18T07:35:49.370Z,22.90
2018-05-18T07:38:16.849Z,27.40
2018-05-18T07:40:44.316Z,28.20
2018-05-18T07:43:12.057Z,28.63
2018-05-18T07:45:39.523Z,30.63
2018-05-18T07:48:07.642Z,27.30
2018-05-18T07:50:35.866Z,29.17
2018-05-18T07:53:03.399Z,25.83
2018-05-18T07:55:30.862Z,31.27
2018-05-18T07:57:58.717Z,26.77
2018-05-18T08:00:26.181Z,28.00
2018-05-18T08:02:53.685Z,35.50
2018-05-18T08:05:21.237Z,30.93
2018-05-18T08:07:48.724Z,28.30
2018-05-18T08:10:16.943Z,31.53
2018-05-18T08:12:44.435Z,32.30
2018-05-18T08:15:12.411Z,30.33
2018-05-18T08:17:39.826Z,23.17
2018-05-18T08:20:08.022Z,25.30
2018-05-18T08:22:35.585Z,25.53
2018-05-18T08:25:04.341Z,24.67
2018-05-18T08:27:31.867Z,24.13
2018-05-18T08:29:59.646Z,24.87
2018-05-18T08:32:27.123Z,22.40
2018-05-18T08:34:54.610Z,22.97
2018-05-18T08:37:22.316Z,20.80
2018-05-18T08:39:49.811Z,20.43
2018-05-18T08:42:17.285Z,20.60
2018-05-18T08:44:45.553Z,17.60
2018-05-18T08:47:13.015Z,20.60
2018-05-18T08:49:40.512Z,19.70
2018-05-18T08:52:08.831Z,24.83
2018-05-18T08:54:36.317Z,23.97
2018-05-18T08:57:04.560Z,22.00
2018-05-18T08:59:32.138Z,19.13
2018-05-18T09:02:00.419Z,21.00
2018-05-18T09:04:28.692Z,18.27
2018-05-18T09:06:57.332Z,18.47
2018-05-18T09:09:24.821Z,20.20
2018-05-18T09:11:53.086Z,18.57
2018-05-18T09:14:21.328Z,21.30
2018-05-18T09:16:48.851Z,18.20
2018-05-18T09:19:17.133Z,21.73
2018-05-18T09:21:45.415Z,16.43
2018-05-18T09:24:12.884Z,20.17
2018-05-18T09:26:40.367Z,22.17
2018-05-18T09:29:07.835Z,19.80
2018-05-18T09:31:36.956Z,18.10
2018-05-18T09:34:05.654Z,23.17
2018-05-18T09:36:33.054Z,20.52
2018-05-18T09:39:00.662Z,18.23
2018-05-18T09:41:28.153Z,22.45
2018-05-18T09:43:55.634Z,20.48
2018-05-18T09:46:23.608Z,18.52
2018-05-18T09:48:51.086Z,19.65
2018-05-18T09:51:19.344Z,20.77
2018-05-18T09:53:46.914Z,19.30
2018-05-18T09:56:15.179Z,16.55
2018-05-18T09:58:43.978Z,22.73
2018-05-18T10:01:12.213Z,20.85
2018-05-18T10:03:39.709Z,17.75
2018-05-18T10:06:10.802Z,16.80
2018-05-18T10:08:38.288Z,17.05
2018-05-18T10:11:05.896Z,15.50
2018-05-18T10:13:33.358Z,16.58
2018-05-18T10:16:00.842Z,18.75
2018-05-18T10:18:28.370Z,17.05
2018-05-18T10:20:56.589Z,12.75
2018-05-18T10:23:24.478Z,17.85
2018-05-18T10:25:52.993Z,18.55
2018-05-18T10:28:25.928Z,12.88
2018-05-18T10:30:53.396Z,14.32
2018-05-18T10:33:21.637Z,17.83
2018-05-18T10:35:49.206Z,23.08
2018-05-18T10:38:16.685Z,14.98
2018-05-18T10:40:44.936Z,13.90
2018-05-18T10:43:12.761Z,17.55
2018-05-18T10:45:40.264Z,18.17
2018-05-18T10:48:08.501Z,18.07
2018-05-18T10:50:35.980Z,14.93
2018-05-18T10:53:03.510Z,15.00
2018-05-18T10:55:30.988Z,18.40
2018-05-18T10:57:58.505Z,18.10
2018-05-18T11:00:26.296Z,24.03
2018-05-18T11:02:54.551Z,19.77
2018-05-18T11:05:22.371Z,21.83
2018-05-18T11:07:50.301Z,18.13
2018-05-18T11:10:18.667Z,18.53
2018-05-18T11:12:46.148Z,15.03
2018-05-18T11:15:13.611Z,19.27
2018-05-18T11:17:41.455Z,18.90
2018-05-18T11:20:08.969Z,17.80
2018-05-18T11:22:36.397Z,15.43
2018-05-18T11:25:03.864Z,16.10
2018-05-18T11:27:32.127Z,15.23
2018-05-18T11:30:00.884Z,18.70
2018-05-18T11:32:28.631Z,17.13
2018-05-18T11:34:56.106Z,16.63
2018-05-18T11:37:23.639Z,18.73
2018-05-18T11:39:51.096Z,18.07
2018-05-18T11:42:18.948Z,14.30
2018-05-18T11:44:46.459Z,21.40
2018-05-18T11:47:14.702Z,19.00
2018-05-18T11:49:42.612Z,18.73
2018-05-18T11:52:10.079Z,15.90
2018-05-18T11:54:38.468Z,19.27
2018-05-18T11:57:06.715Z,16.00
2018-05-18T11:59:34.211Z,17.17
2018-05-18T12:02:01.674Z,16.60
2018-05-18T12:04:29.510Z,14.50
2018-05-18T12:16:43.045Z,17.80
2018-05-18T12:19:10.881Z,16.13
2018-05-18T12:21:38.403Z,17.50
2018-05-18T12:24:05.888Z,15.70
2018-05-18T12:26:34.136Z,19.67
2018-05-18T12:29:02.394Z,19.33
2018-05-18T12:31:30.534Z,18.87
2018-05-18T12:33:58.415Z,18.80
2018-05-18T12:36:25.885Z,15.37
2018-05-18T12:38:54.853Z,22.77
2018-05-18T12:41:22.395Z,16.93
2018-05-18T12:43:49.910Z,19.23
2018-05-18T12:46:17.377Z,14.03
2018-05-18T12:48:45.621Z,22.97
2018-05-18T12:51:13.232Z,16.40
2018-05-18T12:53:40.736Z,16.43
2018-05-18T12:56:08.212Z,19.13
2018-05-18T12:58:36.453Z,14.97
2018-05-18T13:01:04.293Z,17.87
2018-05-18T13:03:31.798Z,16.70
2018-05-18T13:05:59.294Z,15.57
2018-05-18T13:08:26.768Z,20.23
2018-05-18T13:10:54.253Z,17.30
2018-05-18T13:13:21.733Z,17.40
2018-05-18T13:15:50.042Z,15.07
2018-05-18T13:18:17.495Z,31.17
2018-05-18T13:20:44.957Z,18.03
2018-05-18T13:23:12.642Z,17.67
2018-05-18T13:25:40.142Z,18.83
2018-05-18T13:28:08.437Z,23.00
2018-05-18T13:30:35.965Z,13.97
2018-05-18T13:33:03.432Z,15.87
2018-05-18T13:35:31.725Z,23.37
2018-05-18T13:37:59.239Z,16.17
2018-05-18T13:40:26.746Z,16.07
2018-05-18T13:42:54.256Z,13.63
2018-05-18T13:45:21.756Z,16.67
2018-05-18T13:47:49.275Z,19.80
2018-05-18T13:50:16.802Z,15.23
2018-05-18T13:52:44.394Z,12.53
2018-05-18T13:55:12.233Z,20.87
2018-05-18T13:57:39.805Z,18.63
2018-05-18T14:00:07.303Z,18.40
2018-05-18T14:02:35.934Z,15.60
2018-05-18T14:05:03.443Z,13.67
2018-05-18T14:07:31.780Z,14.67
2018-05-18T14:09:59.260Z,13.33
2018-05-18T14:12:27.486Z,15.73
2018-05-18T14:14:55.134Z,15.53
2018-05-18T14:17:23.371Z,18.37
2018-05-18T14:19:52.134Z,14.30
2018-05-18T14:22:19.598Z,17.00
2018-05-18T14:24:47.070Z,19.40
2018-05-18T14:27:15.686Z,20.03
2018-05-18T14:29:43.160Z,14.45
2018-05-18T14:32:10.954Z,16.60
2018-05-18T14:34:39.639Z,14.03
2018-05-18T14:37:07.449Z,14.00
2018-05-18T14:39:35.453Z,22.93
2018-05-18T14:42:03.295Z,12.40
2018-05-18T14:44:30.792Z,15.13
2018-05-18T14:46:59.075Z,14.57
2018-05-18T14:49:26.875Z,15.93
2018-05-18T14:51:54.356Z,17.43
2018-05-18T14:54:21.812Z,14.87
2018-05-18T14:56:49.290Z,20.43
2018-05-18T14:59:16.789Z,21.00
2018-05-18T15:01:44.300Z,15.17
2018-05-18T15:04:11.964Z,18.73
2018-05-18T15:06:40.531Z,17.50
2018-05-18T15:09:08.325Z,15.20
2018-05-18T15:11:36.946Z,23.03
2018-05-18T15:14:05.299Z,18.03
2018-05-18T15:16:33.561Z,17.10
2018-05-18T15:19:01.862Z,20.77
2018-05-18T15:21:31.903Z,15.17
2018-05-18T15:23:59.441Z,20.23
2018-05-18T15:26:26.934Z,21.83
2018-05-18T15:28:54.502Z,18.97
2018-05-18T15:31:21.983Z,17.23
2018-05-18T15:33:50.657Z,17.17
2018-05-18T15:36:18.129Z,13.23
2018-05-18T15:38:47.221Z,22.30
2018-05-18T15:41:15.450Z,19.03
2018-05-18T15:43:42.906Z,17.17
2018-05-18T15:46:10.441Z,14.77
2018-05-18T15:48:38.615Z,15.60
2018-05-18T15:51:06.099Z,19.33
2018-05-18T15:53:33.617Z,14.07
2018-05-18T15:56:01.222Z,14.20
2018-05-18T15:58:28.706Z,16.30
2018-05-18T16:00:56.976Z,17.87
2018-05-18T16:03:24.775Z,13.77
2018-05-18T16:05:52.660Z,14.67
2018-05-18T16:08:20.127Z,19.67
2018-05-18T16:10:47.641Z,14.07
2018-05-18T16:13:15.851Z,14.20
2018-05-18T16:15:43.439Z,15.57
2018-05-18T16:18:10.915Z,17.57
2018-05-18T16:20:39.391Z,19.73
2018-05-18T16:23:07.618Z,18.33
2018-05-18T16:25:35.138Z,17.00
2018-05-18T16:28:02.675Z,17.83
2018-05-18T16:30:31.135Z,13.57
2018-05-18T16:32:59.160Z,20.40
2018-05-18T16:35:26.659Z,15.37
2018-05-18T16:37:54.955Z,14.13
2018-05-18T16:40:23.182Z,15.20
2018-05-18T16:42:50.704Z,16.10
2018-05-18T16:45:18.199Z,16.33
2018-05-18T16:47:46.050Z,19.10
2018-05-18T16:50:13.788Z,14.70
2018-05-18T16:52:41.282Z,14.83
2018-05-18T16:55:09.605Z,19.27
2018-05-18T16:57:38.255Z,18.37
2018-05-18T17:00:05.717Z,21.07
2018-05-18T17:02:33.243Z,19.03
2018-05-18T17:05:01.150Z,17.83
2018-05-18T17:07:29.490Z,21.03
2018-05-18T17:09:57.013Z,21.70
2018-05-18T17:12:24.646Z,19.87
2018-05-18T17:14:52.079Z,21.93
2018-05-18T17:17:19.559Z,20.33
2018-05-18T17:19:47.144Z,17.33
2018-05-18T17:22:14.583Z,22.90
2018-05-18T17:24:43.004Z,21.17
2018-05-18T17:27:10.490Z,21.60
2018-05-18T17:29:38.009Z,21.50
2018-05-18T17:45:10.541Z,16.20
2018-05-18T17:47:38.240Z,18.03
2018-05-18T17:50:06.122Z,19.00
2018-05-18T17:52:33.663Z,16.00
2018-05-18T17:55:01.172Z,15.57
2018-05-18T17:57:29.427Z,16.60
2018-05-18T17:59:56.926Z,16.73
2018-05-18T18:02:24.417Z,13.87
2018-05-18T18:04:51.873Z,20.27
2018-05-18T18:07:19.369Z,21.17
2018-05-18T18:09:47.642Z,17.20
2018-05-18T18:12:16.164Z,17.47
2018-05-18T18:14:44.690Z,17.57
2018-05-18T18:17:12.178Z,20.83
2018-05-18T18:19:39.700Z,18.13
2018-05-18T18:22:07.166Z,18.73
2018-05-18T18:24:37.055Z,16.17
2018-05-18T18:27:04.523Z,13.77
2018-05-18T18:29:32.753Z,15.13
2018-05-18T18:32:00.234Z,20.70
2018-05-18T18:34:27.751Z,15.67
2018-05-18T18:36:55.230Z,12.80
2018-05-18T18:39:22.744Z,12.53
2018-05-18T18:41:50.978Z,17.40
2018-05-18T18:44:18.521Z,14.20
2018-05-18T18:46:46.002Z,14.80
2018-05-18T18:49:14.299Z,16.07
2018-05-18T18:51:42.144Z,19.67
2018-05-18T18:54:09.628Z,14.77
2018-05-18T18:56:38.726Z,16.03
2018-05-18T18:59:07.374Z,14.90
2018-05-18T19:01:34.868Z,19.70
2018-05-18T19:04:02.364Z,18.33
2018-05-18T19:06:29.863Z,18.43
2018-05-18T19:08:57.432Z,20.87
2018-05-18T19:11:25.694Z,15.53
2018-05-18T19:13:53.157Z,18.63
2018-05-18T19:16:21.434Z,17.97
2018-05-18T19:18:49.981Z,10.83
2018-05-18T19:21:17.841Z,12.13
2018-05-18T19:23:45.711Z,15.87
2018-05-18T19:26:14.130Z,14.10
2018-05-18T19:28:42.809Z,20.23
2018-05-18T19:31:11.153Z,12.37
2018-05-18T19:33:38.637Z,20.27
2018-05-18T19:36:06.869Z,13.10
2018-05-18T19:38:34.349Z,16.17
2018-05-18T19:41:01.823Z,13.57
2018-05-18T19:43:30.082Z,13.67
2018-05-18T19:45:57.553Z,17.07
2018-05-18T19:48:25.865Z,16.27
2018-05-18T19:50:53.740Z,18.27
2018-05-18T19:53:21.246Z,13.07
2018-05-18T19:55:49.182Z,13.47
2018-05-18T19:58:16.691Z,16.27
2018-05-18T20:00:44.913Z,19.10
2018-05-18T20:03:13.230Z,17.13
2018-05-18T20:05:42.170Z,15.80
2018-05-18T20:08:09.646Z,12.17
2018-05-18T20:10:37.137Z,13.40
2018-05-18T20:13:05.779Z,19.47
2018-05-18T20:15:33.287Z,15.87
2018-05-18T20:18:01.578Z,14.23
2018-05-18T20:20:29.047Z,15.73
2018-05-18T20:22:56.758Z,16.50
2018-05-18T20:25:25.012Z,11.77
2018-05-18T20:27:52.509Z,11.77
2018-05-18T20:30:20.041Z,20.97
2018-05-18T20:32:48.286Z,12.63
2018-05-18T20:35:15.778Z,14.97
2018-05-18T20:37:44.017Z,17.30
2018-05-18T20:40:12.323Z,15.20
2018-05-18T20:42:39.874Z,21.83
2018-05-18T20:45:07.665Z,17.10
2018-05-18T20:47:35.113Z,18.20
2018-05-18T20:50:03.439Z,14.67
2018-05-18T20:52:30.900Z,16.93
2018-05-18T20:54:58.858Z,16.63
2018-05-18T20:57:26.329Z,22.20
2018-05-18T20:59:53.840Z,21.40
2018-05-18T21:02:21.338Z,16.23
2018-05-18T21:04:48.863Z,13.33
2018-05-18T21:07:16.347Z,16.50
2018-05-18T21:09:44.109Z,16.30
2018-05-18T21:12:11.588Z,14.87
2018-05-18T21:14:39.125Z,18.10
2018-05-18T21:17:06.624Z,18.57
2018-05-18T21:19:34.864Z,13.50
2018-05-18T21:22:02.348Z,19.33
2018-05-18T21:24:30.573Z,17.10
2018-05-18T21:26:58.217Z,10.80
2018-05-18T21:29:25.679Z,15.90
2018-05-18T21:31:54.689Z,19.43
2018-05-18T21:34:22.450Z,13.13
2018-05-18T21:36:49.925Z,21.33
2018-05-18T21:39:17.410Z,12.00
2018-05-18T21:41:49.203Z,17.30
2018-05-18T21:44:16.689Z,17.40
2018-05-18T21:46:44.521Z,11.67
2018-05-18T21:49:12.136Z,15.17
2018-05-18T21:51:40.366Z,12.80
2018-05-18T21:54:07.883Z,16.77
2018-05-18T21:56:36.125Z,13.60
2018-05-18T21:59:06.096Z,10.97
2018-05-18T22:01:33.557Z,16.33
2018-05-18T22:04:01.201Z,16.17
2018-05-18T22:06:29.072Z,21.20
2018-05-18T22:08:56.642Z,10.80
2018-05-18T22:11:24.116Z,12.90
2018-05-18T22:13:52.519Z,13.53
2018-05-18T22:16:20.031Z,12.07
2018-05-18T22:18:47.579Z,18.17
2018-05-18T22:21:16.055Z,16.57
2018-05-18T22:23:43.516Z,10.13
2018-05-18T22:26:11.384Z,16.33
2018-05-18T22:28:38.841Z,14.97
2018-05-18T22:31:06.369Z,15.27
2018-05-18T22:33:34.600Z,22.87
2018-05-18T22:36:02.079Z,13.97
2018-05-18T22:38:29.545Z,12.73
2018-05-18T22:40:58.601Z,12.37
2018-05-18T22:43:26.997Z,12.80
2018-05-18T22:45:55.846Z,11.30
2018-05-18T22:48:23.306Z,9.93
2018-05-18T22:50:50.802Z,16.43
2018-05-18T22:53:18.260Z,9.33
2018-05-18T22:55:45.721Z,13.00
2018-05-18T22:58:13.958Z,17.30
2018-05-18T23:00:41.590Z,11.70
2018-05-18T23:03:09.060Z,13.17
2018-05-18T23:05:36.521Z,14.93
2018-05-18T23:08:03.994Z,16.17
2018-05-18T23:10:31.465Z,12.37
2018-05-18T23:12:58.949Z,15.37
2018-05-18T23:15:27.329Z,15.67
2018-05-18T23:17:55.574Z,14.23
2018-05-18T23:20:23.969Z,16.30
2018-05-18T23:22:51.746Z,13.80
2018-05-18T23:25:19.971Z,18.03
2018-05-18T23:27:48.330Z,24.07
2018-05-18T23:30:15.869Z,13.60
2018-05-18T23:32:43.366Z,19.70
2018-05-18T23:45:00.865Z,11.83
2018-05-18T23:47:28.325Z,15.00
2018-05-18T23:49:56.575Z,13.40
2018-05-18T23:52:24.065Z,15.50
2018-05-18T23:54:52.324Z,14.63
2018-05-18T23:57:19.938Z,15.73
2018-05-18T23:59:47.421Z,18.37
